Time;durP1;ratioP1;P1;durP2;ratioP2;P2;SDS_P1;SDS_P2;PMS_P1;PMS_P2;Temp;Humidity;BMP_temperature;BMP_pressure;BME280_temperature;BME280_humidity;BME280_pressure;Samples;Min_cycle;Max_cycle;Signal;HPM_P1;HPM_P2
2021/06/15 00:00:01;;;;;;;;;;;;;;;21.80;51.93;101775.38;5159916;27;1968;-60
2021/06/15 00:02:26;;;;;;;;;;;;;;;21.76;52.39;101768.50;5160228;27;818;-59
2021/06/15 00:04:51;;;;;;;;;;;;;;;21.80;51.77;101767.22;5159754;27;949;-60
2021/06/15 00:07:16;;;;;;;;;;;;;;;21.61;52.27;101775.44;5147009;27;1674;-60
2021/06/15 00:09:41;;;;;;;;;;;;;;;21.25;52.37;101768.97;5138909;27;1004;-60
2021/06/15 00:12:09;;;;;;;;;;;;;;;21.28;52.40;101765.13;5138698;27;1044;-60
2021/06/15 00:14:34;;;;;;;;;;;;;;;21.36;52.69;101768.81;5139100;27;853;-60
2021/06/15 00:16:59;;;;;;;;;;;;;;;21.57;52.22;101771.31;5138639;27;826;-60
2021/06/15 00:19:24;;;;;;;;;;;;;;;21.47;51.95;101770.50;5138589;27;1917;-60
2021/06/15 00:21:49;;;;;;;;;;;;;;;21.50;52.21;101769.34;5138379;27;925;-60
2021/06/15 00:24:14;;;;;;;;;;;;;;;21.18;52.68;101770.53;5138499;27;798;-60
2021/06/15 00:26:39;;;;;;;;;;;;;;;21.33;52.15;101779.94;5147056;27;1637;-60
2021/06/15 00:29:04;;;;;;;;;;;;;;;21.60;51.19;101778.28;5159357;27;795;-61
2021/06/15 00:31:29;;;;;;;;;;;;;;;21.26;52.19;101781.53;5159265;27;857;-61
2021/06/15 00:33:54;;;;;;;;;;;;;;;21.38;52.18;101790.34;5159091;27;798;-60
2021/06/15 00:36:20;;;;;;;;;;;;;;;21.50;51.51;101789.16;5158856;27;1048;-60
2021/06/15 00:38:45;;;;;;;;;;;;;;;21.44;51.47;101776.22;5158932;27;1952;-61
2021/06/15 00:41:10;;;;;;;;;;;;;;;21.41;51.43;101781.94;5140279;27;1071;-61
2021/06/15 00:43:35;;;;;;;;;;;;;;;21.47;50.85;101784.06;5158829;27;884;-61
2021/06/15 00:46:00;;;;;;;;;;;;;;;21.54;51.19;101782.44;5153151;27;1629;-61
2021/06/15 00:48:25;;;;;;;;;;;;;;;21.55;51.19;101788.72;5138350;27;1648;-61
2021/06/15 00:50:50;;;;;;;;;;;;;;;21.47;50.93;101784.91;5138264;27;837;-60
2021/06/15 00:53:15;;;;;;;;;;;;;;;21.28;52.07;101792.25;5137806;27;1005;-61
2021/06/15 00:55:40;;;;;;;;;;;;;;;21.44;51.09;101795.19;5137909;27;933;-61
2021/06/15 00:58:05;;;;;;;;;;;;;;;21.53;51.67;101783.44;5137796;27;1974;-60
2021/06/15 01:00:30;;;;;;;;;;;;;;;21.55;50.77;101791.44;5138290;27;1427;-61
2021/06/15 01:02:55;;;;;;;;;;;;;;;21.54;51.00;101795.16;5137693;27;877;-61
2021/06/15 01:05:20;;;;;;;;;;;;;;;21.46;51.70;101785.91;5140051;27;1665;-61
2021/06/15 01:07:46;;;;;;;;;;;;;;;21.20;51.11;101792.09;5158411;27;913;-61
2021/06/15 01:10:11;;;;;;;;;;;;;;;21.18;51.94;101794.06;5156679;27;1766;-61
2021/06/15 01:12:36;;;;;;;;;;;;;;;21.25;51.83;101789.81;5158416;27;1005;-60
2021/06/15 01:15:01;;;;;;;;;;;;;;;21.40;51.23;101791.06;5158499;27;1055;-59
2021/06/15 01:17:27;;;;;;;;;;;;;;;21.46;50.82;101787.78;5158282;27;882;-61
2021/06/15 01:19:52;;;;;;;;;;;;;;;21.09;51.04;101780.41;5158189;27;1914;-61
2021/06/15 01:22:17;;;;;;;;;;;;;;;21.26;50.73;101792.38;5158033;27;775;-60
2021/06/15 01:24:42;;;;;;;;;;;;;;;21.16;50.47;101791.50;5158328;27;1004;-61
2021/06/15 01:27:07;;;;;;;;;;;;;;;21.21;50.09;101799.25;5138873;27;1770;-62
2021/06/15 01:29:32;;;;;;;;;;;;;;;21.22;50.57;101801.81;5151179;27;1582;-61
2021/06/15 01:31:57;;;;;;;;;;;;;;;21.27;50.59;101799.53;5158008;27;1012;-61
2021/06/15 01:34:22;;;;;;;;;;;;;;;21.38;49.92;101806.63;5157911;27;996;-61
2021/06/15 01:36:47;;;;;;;;;;;;;;;21.43;49.79;101813.31;5157808;27;932;-61
2021/06/15 01:39:12;;;;;;;;;;;;;;;21.44;50.11;101823.19;5157828;27;1956;-61
2021/06/15 01:41:37;;;;;;;;;;;;;;;21.44;49.29;101827.75;5157586;27;1000;-61
2021/06/15 01:44:02;;;;;;;;;;;;;;;21.39;49.48;101824.59;5157643;27;830;-61
2021/06/15 01:46:27;;;;;;;;;;;;;;;21.40;49.16;101837.16;5141630;27;1714;-61
2021/06/15 01:48:55;;;;;;;;;;;;;;;21.44;48.73;101835.88;5136927;27;787;-62
2021/06/15 01:51:21;;;;;;;;;;;;;;;21.38;49.14;101828.31;5137339;27;1166;-60
2021/06/15 01:53:47;;;;;;;;;;;;;;;21.40;48.56;101827.19;5142985;27;1548;-60
2021/06/15 01:56:12;;;;;;;;;;;;;;;21.43;47.80;101828.75;5153924;27;1677;-60
2021/06/15 01:58:37;;;;;;;;;;;;;;;21.34;48.63;101822.31;5157543;27;1889;-60
2021/06/15 02:01:02;;;;;;;;;;;;;;;21.39;48.15;101820.03;5157665;27;1350;-60
2021/06/15 02:03:27;;;;;;;;;;;;;;;21.35;48.13;101828.59;5156737;27;993;-60
2021/06/15 02:05:53;;;;;;;;;;;;;;;21.37;47.52;101823.88;5156937;27;1626;-60
2021/06/15 02:08:18;;;;;;;;;;;;;;;21.39;47.83;101822.75;5157143;27;1020;-59
2021/06/15 02:10:43;;;;;;;;;;;;;;;21.29;47.80;101818.34;5157209;27;877;-60
2021/06/15 02:13:08;;;;;;;;;;;;;;;21.28;47.57;101819.34;5157204;27;1072;-60
2021/06/15 02:15:33;;;;;;;;;;;;;;;21.31;47.94;101816.38;5157254;27;940;-60
2021/06/15 02:17:58;;;;;;;;;;;;;;;21.30;48.42;101814.66;5156915;27;834;-60
2021/06/15 02:20:23;;;;;;;;;;;;;;;21.25;48.35;101814.22;5157057;27;1913;-60
2021/06/15 02:22:48;;;;;;;;;;;;;;;21.25;48.37;101816.94;5156429;27;949;-59
2021/06/15 02:25:13;;;;;;;;;;;;;;;21.10;48.45;101814.63;5138496;27;1597;-60
2021/06/15 02:27:38;;;;;;;;;;;;;;;21.19;48.15;101818.31;5136163;27;830;-60
2021/06/15 02:30:03;;;;;;;;;;;;;;;21.23;48.16;101818.94;5136295;27;1087;-60
2021/06/15 02:32:28;;;;;;;;;;;;;;;21.24;48.79;101815.22;5117754;27;1048;-60
2021/06/15 02:34:54;;;;;;;;;;;;;;;21.27;48.16;101825.78;5136151;27;822;-60
2021/06/15 02:37:19;;;;;;;;;;;;;;;21.23;48.39;101814.38;5135992;27;811;-59
2021/06/15 02:39:44;;;;;;;;;;;;;;;21.26;48.83;101813.22;5136083;27;1893;-60
2021/06/15 02:42:09;;;;;;;;;;;;;;;21.21;48.92;101810.09;5135819;27;1001;-60
2021/06/15 02:44:34;;;;;;;;;;;;;;;21.24;49.38;101816.06;5150720;27;1853;-61
2021/06/15 02:46:59;;;;;;;;;;;;;;;21.24;48.40;101824.22;5156750;27;818;-60
2021/06/15 02:49:24;;;;;;;;;;;;;;;21.25;48.95;101819.66;5156530;27;1067;-60
2021/06/15 02:51:49;;;;;;;;;;;;;;;21.22;48.62;101812.66;5156289;27;1595;-60
2021/06/15 02:54:14;;;;;;;;;;;;;;;21.05;49.36;101819.63;5156395;27;921;-60
2021/06/15 02:56:39;;;;;;;;;;;;;;;20.90;49.85;101817.50;5157057;27;1724;-60
2021/06/15 02:59:04;;;;;;;;;;;;;;;20.96;49.22;101822.34;5156456;27;1960;-60
2021/06/15 03:01:29;;;;;;;;;;;;;;;20.99;49.60;101816.63;5156683;27;1169;-60
2021/06/15 03:03:54;;;;;;;;;;;;;;;20.89;49.38;101819.34;5144873;27;1696;-60
2021/06/15 03:06:19;;;;;;;;;;;;;;;20.94;49.76;101819.78;5135855;27;1692;-61
2021/06/15 03:08:45;;;;;;;;;;;;;;;20.56;49.60;101817.06;5135496;28;977;-61
2021/06/15 03:11:10;;;;;;;;;;;;;;;20.57;50.46;101816.06;5135636;28;873;-61
2021/06/15 03:13:35;;;;;;;;;;;;;;;20.54;49.34;101816.34;5135669;28;924;-61
2021/06/15 03:16:01;;;;;;;;;;;;;;;20.56;50.43;101826.03;5138602;27;787;-60
2021/06/15 03:18:26;;;;;;;;;;;;;;;20.84;49.77;101824.34;5139726;27;1963;-61
2021/06/15 03:20:51;;;;;;;;;;;;;;;20.97;49.16;101830.31;5139825;27;885;-60
2021/06/15 03:23:16;;;;;;;;;;;;;;;21.02;49.11;101846.16;5140996;27;1566;-61
2021/06/15 03:25:41;;;;;;;;;;;;;;;20.99;49.44;101844.59;5140036;27;913;-60
2021/06/15 03:28:06;;;;;;;;;;;;;;;20.74;49.20;101846.03;5139991;27;834;-61
2021/06/15 03:30:32;;;;;;;;;;;;;;;20.73;49.24;101840.75;5139754;27;933;-61
2021/06/15 03:32:57;;;;;;;;;;;;;;;20.88;49.65;101843.88;5139674;27;1063;-60
2021/06/15 03:35:22;;;;;;;;;;;;;;;20.92;48.80;101837.19;5139528;27;1088;-61
2021/06/15 03:37:47;;;;;;;;;;;;;;;20.93;48.75;101837.03;5139447;27;842;-60
2021/06/15 03:40:12;;;;;;;;;;;;;;;20.94;48.24;101841.47;5139534;27;1964;-60
2021/06/15 03:42:40;;;;;;;;;;;;;;;20.89;49.20;101849.16;5152381;27;1945;-61
2021/06/15 03:45:05;;;;;;;;;;;;;;;20.95;48.49;101837.75;5159938;27;1592;-60
2021/06/15 03:47:30;;;;;;;;;;;;;;;20.60;49.19;101834.75;5160130;27;1016;-60
2021/06/15 03:49:55;;;;;;;;;;;;;;;20.79;49.18;101851.00;5159981;27;948;-60
2021/06/15 03:52:20;;;;;;;;;;;;;;;20.86;49.22;101851.28;5160141;27;849;-59
2021/06/15 03:54:45;;;;;;;;;;;;;;;20.88;49.66;101850.16;5159950;27;814;-60
2021/06/15 03:57:10;;;;;;;;;;;;;;;20.91;49.07;101841.75;5159225;27;1051;-60
2021/06/15 03:59:37;;;;;;;;;;;;;;;20.92;48.84;101851.59;5159321;27;1909;-60
2021/06/15 04:02:05;;;;;;;;;;;;;;;20.90;48.75;101864.41;5149861;27;1572;-60
2021/06/15 04:04:30;;;;;;;;;;;;;;;20.90;48.53;101858.16;5139072;27;1343;-60
2021/06/15 04:06:55;;;;;;;;;;;;;;;20.90;48.31;101871.69;5138819;27;775;-60
2021/06/15 04:09:20;;;;;;;;;;;;;;;20.89;48.76;101873.56;5139075;27;1723;-60
2021/06/15 04:11:46;;;;;;;;;;;;;;;20.91;48.34;101868.00;5139076;27;1602;-61
2021/06/15 04:14:11;;;;;;;;;;;;;;;20.89;48.67;101875.41;5138437;27;842;-61
2021/06/15 04:16:36;;;;;;;;;;;;;;;20.60;49.38;101883.50;5138875;27;841;-61
2021/06/15 04:19:01;;;;;;;;;;;;;;;20.71;48.44;101877.94;5120019;27;1901;-60
2021/06/15 04:21:26;;;;;;;;;;;;;;;20.75;49.29;101877.53;5145822;27;1457;-61
2021/06/15 04:23:51;;;;;;;;;;;;;;;20.79;48.72;101878.94;5159148;27;892;-60
2021/06/15 04:26:16;;;;;;;;;;;;;;;20.83;48.73;101873.25;5159111;27;1000;-61
2021/06/15 04:28:41;;;;;;;;;;;;;;;20.74;48.44;101886.66;5159440;27;905;-61
2021/06/15 04:31:06;;;;;;;;;;;;;;;20.45;49.65;101875.75;5158872;27;1707;-60
2021/06/15 04:33:31;;;;;;;;;;;;;;;20.64;48.70;101887.63;5159290;27;786;-60
2021/06/15 04:35:56;;;;;;;;;;;;;;;20.70;48.51;101892.47;5159104;27;1016;-61
2021/06/15 04:38:22;;;;;;;;;;;;;;;20.40;48.61;101891.56;5158830;27;1949;-60
2021/06/15 04:40:47;;;;;;;;;;;;;;;20.52;49.16;101889.59;5155005;27;1571;-60
2021/06/15 04:43:12;;;;;;;;;;;;;;;20.11;49.98;101891.41;5138039;27;972;-60
2021/06/15 04:45:37;;;;;;;;;;;;;;;19.75;50.39;101891.94;5138107;27;1197;-60
2021/06/15 04:48:03;;;;;;;;;;;;;;;19.59;51.02;101875.31;5138268;27;997;-60
2021/06/15 04:50:28;;;;;;;;;;;;;;;19.63;50.69;101877.63;5138234;27;1625;-61
2021/06/15 04:52:54;;;;;;;;;;;;;;;19.65;50.72;101889.19;5137917;27;945;-61
2021/06/15 04:55:19;;;;;;;;;;;;;;;19.79;50.82;101884.41;5137885;27;953;-61
2021/06/15 04:57:44;;;;;;;;;;;;;;;20.01;50.37;101889.66;5138039;27;1004;-61
2021/06/15 05:00:09;;;;;;;;;;;;;;;19.36;52.03;101888.06;5144547;27;1902;-60
2021/06/15 05:02:34;;;;;;;;;;;;;;;19.44;52.08;101888.28;5137817;27;909;-61
2021/06/15 05:04:59;;;;;;;;;;;;;;;19.44;52.30;101885.59;5137765;27;1076;-60
2021/06/15 05:07:24;;;;;;;;;;;;;;;19.93;51.49;101884.06;5137509;27;1021;-58
2021/06/15 05:09:49;;;;;;;;;;;;;;;20.38;50.78;101898.97;5137360;27;1585;-60
2021/06/15 05:12:14;;;;;;;;;;;;;;;20.74;51.47;101904.75;5137665;27;992;-60
2021/06/15 05:14:40;;;;;;;;;;;;;;;20.95;52.97;101907.38;5137664;27;786;-61
2021/06/15 05:17:05;;;;;;;;;;;;;;;21.05;51.51;101895.53;5137366;27;1068;-59
2021/06/15 05:19:30;;;;;;;;;;;;;;;21.11;52.51;101900.38;5137056;27;1917;-60
2021/06/15 05:21:55;;;;;;;;;;;;;;;21.18;51.61;101902.50;5157121;27;1692;-60
2021/06/15 05:24:20;;;;;;;;;;;;;;;21.20;52.30;101912.25;5143211;27;1749;-59
2021/06/15 05:26:45;;;;;;;;;;;;;;;21.23;52.85;101902.97;5144197;27;1543;-59
2021/06/15 05:29:10;;;;;;;;;;;;;;;21.27;51.68;101923.38;5144477;27;1264;-60
2021/06/15 05:31:35;;;;;;;;;;;;;;;21.28;52.48;101917.81;5149347;27;1418;-59
2021/06/15 05:34:00;;;;;;;;;;;;;;;21.31;51.62;101927.53;5147331;27;1406;-60
2021/06/15 05:36:25;;;;;;;;;;;;;;;21.33;51.49;101928.22;5147788;27;1583;-60
2021/06/15 05:38:50;;;;;;;;;;;;;;;21.34;51.99;101936.22;5149217;27;1963;-59
2021/06/15 05:41:15;;;;;;;;;;;;;;;21.37;51.65;101938.63;5144074;27;1401;-58
2021/06/15 05:43:41;;;;;;;;;;;;;;;21.40;51.27;101942.94;5154446;27;1147;-59
2021/06/15 05:46:06;;;;;;;;;;;;;;;21.41;51.02;101947.34;5146349;27;1315;-59
2021/06/15 05:48:31;;;;;;;;;;;;;;;21.41;50.75;101942.78;5144677;27;1398;-61
2021/06/15 05:50:56;;;;;;;;;;;;;;;21.42;50.74;101949.06;5142301;27;1687;-60
2021/06/15 05:53:21;;;;;;;;;;;;;;;21.44;50.48;101949.78;5137325;27;1469;-59
2021/06/15 05:55:46;;;;;;;;;;;;;;;21.44;50.81;101938.94;5126636;27;1280;-60
2021/06/15 05:58:11;;;;;;;;;;;;;;;21.44;51.03;101947.06;5143336;27;1401;-59
2021/06/15 06:00:36;;;;;;;;;;;;;;;21.47;50.41;101952.22;5157523;27;1897;-60
2021/06/15 06:03:02;;;;;;;;;;;;;;;21.47;50.26;101947.66;5157153;27;937;-59
2021/06/15 06:08:10;;;;;;;;;;;;;;;21.49;49.88;101947.50;5157288;27;865;-60
2021/06/15 06:10:35;;;;;;;;;;;;;;;21.52;50.65;101944.47;5146425;27;1520;-59
2021/06/15 06:13:00;;;;;;;;;;;;;;;21.52;50.31;101944.47;5136591;27;809;-59
2021/06/15 06:15:25;;;;;;;;;;;;;;;21.52;50.84;101959.91;5137541;27;1915;-59
2021/06/15 06:17:50;;;;;;;;;;;;;;;21.53;50.95;101973.31;5157709;27;1551;-59
2021/06/15 06:20:15;;;;;;;;;;;;;;;21.55;50.92;101979.47;5157690;27;1913;-59
2021/06/15 06:22:40;;;;;;;;;;;;;;;21.56;50.28;101966.75;5156718;27;1635;-59
2021/06/15 06:25:05;;;;;;;;;;;;;;;21.58;50.70;101962.03;5156988;27;778;-59
2021/06/15 06:27:31;;;;;;;;;;;;;;;21.57;50.80;101973.91;5157052;27;866;-59
2021/06/15 06:29:56;;;;;;;;;;;;;;;21.58;50.66;101976.47;5156956;27;996;-59
2021/06/15 06:32:21;;;;;;;;;;;;;;;21.60;50.66;101977.19;5156902;27;1000;-59
2021/06/15 06:34:46;;;;;;;;;;;;;;;21.60;50.21;101985.31;5156738;27;873;-59
2021/06/15 06:37:11;;;;;;;;;;;;;;;21.61;50.60;101984.31;5138652;27;1545;-59
2021/06/15 06:39:36;;;;;;;;;;;;;;;21.62;50.62;101983.34;5135839;27;1960;-59
2021/06/15 06:42:01;;;;;;;;;;;;;;;21.62;50.13;101983.34;5136006;27;976;-59
2021/06/15 06:44:26;;;;;;;;;;;;;;;21.63;50.39;101985.03;5136142;27;1004;-59
2021/06/15 06:46:51;;;;;;;;;;;;;;;21.63;50.31;101981.47;5135854;27;814;-59
2021/06/15 06:49:16;;;;;;;;;;;;;;;21.65;50.62;101976.75;5135774;27;1156;-59
2021/06/15 06:51:41;;;;;;;;;;;;;;;21.64;50.36;101978.63;5135649;27;992;-59
2021/06/15 06:54:07;;;;;;;;;;;;;;;21.66;50.29;101989.34;5135960;27;810;-59
2021/06/15 06:56:33;;;;;;;;;;;;;;;21.66;50.08;101990.19;5149483;27;1611;-59
2021/06/15 06:58:58;;;;;;;;;;;;;;;21.67;49.67;101981.06;5156426;27;1968;-59
2021/06/15 07:01:24;;;;;;;;;;;;;;;21.68;50.28;101988.16;5156771;27;1197;-59
2021/06/15 07:03:49;;;;;;;;;;;;;;;21.68;50.14;101980.03;5156334;27;1038;-59
2021/06/15 07:06:14;;;;;;;;;;;;;;;21.69;49.54;101979.03;5156410;27;787;-59
2021/06/15 07:08:39;;;;;;;;;;;;;;;21.70;50.20;101979.88;5156165;27;1012;-59
2021/06/15 07:11:04;;;;;;;;;;;;;;;21.71;49.49;101981.59;5156497;27;953;-59
2021/06/15 07:13:29;;;;;;;;;;;;;;;21.72;49.53;101983.31;5156185;27;988;-59
2021/06/15 07:15:55;;;;;;;;;;;;;;;21.72;49.86;101992.31;5146002;27;1575;-59
2021/06/15 07:18:20;;;;;;;;;;;;;;;21.73;49.92;101995.88;5135598;28;1005;-59
2021/06/15 07:20:45;;;;;;;;;;;;;;;21.74;49.17;101982.16;5135273;28;858;-59
2021/06/15 07:23:10;;;;;;;;;;;;;;;21.75;49.36;101983.88;5135390;27;1629;-59
2021/06/15 07:25:35;;;;;;;;;;;;;;;21.75;48.98;101994.72;5135891;28;969;-60
2021/06/15 07:28:00;;;;;;;;;;;;;;;21.76;49.63;101988.31;5135838;28;704;-59
2021/06/15 07:30:25;;;;;;;;;;;;;;;21.76;49.33;101985.59;5135427;28;873;-59
2021/06/15 07:32:51;;;;;;;;;;;;;;;21.76;49.17;101993.72;5135578;28;877;-59
2021/06/15 07:35:16;;;;;;;;;;;;;;;21.77;48.84;101997.31;5142337;27;1646;-59
2021/06/15 07:37:41;;;;;;;;;;;;;;;21.78;48.37;101989.03;5155989;27;906;-59
2021/06/15 07:40:06;;;;;;;;;;;;;;;21.79;48.79;101984.47;5156439;27;1958;-59
2021/06/15 07:42:31;;;;;;;;;;;;;;;21.78;48.79;101999.03;5156314;27;921;-59
2021/06/15 07:44:56;;;;;;;;;;;;;;;21.79;49.37;102007.03;5155868;27;1087;-59
2021/06/15 07:47:21;;;;;;;;;;;;;;;21.79;49.10;101996.16;5137351;27;1004;-59
2021/06/15 07:49:46;;;;;;;;;;;;;;;21.81;48.48;102009.59;5156034;27;968;-59
2021/06/15 07:52:11;;;;;;;;;;;;;;;21.80;48.72;102002.44;5155913;27;992;-59
2021/06/15 07:54:37;;;;;;;;;;;;;;;21.81;48.82;101996.03;5151663;27;1633;-59
2021/06/15 07:57:02;;;;;;;;;;;;;;;21.81;48.49;102009.59;5143008;27;1579;-59
2021/06/15 07:59:27;;;;;;;;;;;;;;;21.81;48.74;101999.59;5155745;27;1967;-60
2021/06/15 08:01:52;;;;;;;;;;;;;;;21.81;48.32;101998.75;5156476;27;1063;-59
2021/06/15 08:04:17;;;;;;;;;;;;;;;21.81;48.89;101991.44;5160042;27;908;-60
2021/06/15 08:06:42;;;;;;;;;;;;;;;21.82;48.62;101978.75;5160099;27;762;-59
2021/06/15 08:09:07;;;;;;;;;;;;;;;21.84;47.77;101979.47;5159495;27;1062;-58
2021/06/15 08:11:32;;;;;;;;;;;;;;;21.83;48.97;101977.75;5159601;27;1180;-59
2021/06/15 08:13:57;;;;;;;;;;;;;;;21.85;48.07;101988.47;5158682;27;1752;-59
2021/06/15 08:16:22;;;;;;;;;;;;;;;21.87;48.21;101989.13;5159787;27;1004;-59
2021/06/15 08:18:48;;;;;;;;;;;;;;;21.88;48.07;101985.44;5159913;27;1968;-59
2021/06/15 08:21:16;;;;;;;;;;;;;;;21.88;47.28;101996.28;5146449;27;1731;-59
2021/06/15 08:23:41;;;;;;;;;;;;;;;21.88;47.43;102004.41;5141964;27;1559;-59
2021/06/15 08:26:06;;;;;;;;;;;;;;;21.89;46.97;101996.13;5149465;27;1310;-58
2021/06/15 08:28:31;;;;;;;;;;;;;;;21.88;47.41;101982.72;5148364;27;1390;-59
2021/06/15 08:30:57;;;;;;;;;;;;;;;21.90;46.51;101980.72;5147761;27;1406;-59
2021/06/15 08:33:22;;;;;;;;;;;;;;;21.90;47.34;101980.72;5149285;27;1330;-59
2021/06/15 08:35:47;;;;;;;;;;;;;;;21.91;46.49;101977.84;5146526;27;1954;-59
2021/06/15 08:38:13;;;;;;;;;;;;;;;21.92;46.59;101978.72;5148414;27;1343;-59
2021/06/15 08:40:38;;;;;;;;;;;;;;;21.92;45.93;101974.16;5150285;27;1893;-59
2021/06/15 08:43:03;;;;;;;;;;;;;;;21.92;47.58;101976.00;5159026;27;1778;-59
2021/06/15 08:45:28;;;;;;;;;;;;;;;21.93;46.46;101972.28;5159165;27;828;-59
2021/06/15 08:47:53;;;;;;;;;;;;;;;21.94;45.99;101976.72;5159581;27;844;-59
2021/06/15 08:50:18;;;;;;;;;;;;;;;21.95;46.14;101976.56;5140745;27;846;-59
2021/06/15 08:52:43;;;;;;;;;;;;;;;21.94;46.44;101980.28;5159084;27;1441;-59
2021/06/15 08:55:08;;;;;;;;;;;;;;;21.96;46.06;101974.72;5148551;27;1885;-60
2021/06/15 08:57:34;;;;;;;;;;;;;;;21.93;45.90;101967.72;5148372;27;1425;-59
2021/06/15 09:00:01;;;;;;;;;;;;;;;21.94;44.86;101976.72;5146577;27;1901;-59
2021/06/15 09:02:26;;;;;;;;;;;;;;;21.93;45.41;101969.56;5145882;27;1274;-59
2021/06/15 09:04:51;;;;;;;;;;;;;;;21.95;45.87;101975.72;5138072;27;1507;-59
2021/06/15 09:07:16;;;;;;;;;;;;;;;21.95;45.10;101967.56;5143127;27;2154;-59
2021/06/15 09:09:41;;;;;;;;;;;;;;;21.94;45.44;101968.56;5146772;27;1251;-59
2021/06/15 09:12:06;;;;;;;;;;;;;;;21.95;45.41;101968.44;5139564;27;1404;-58
2021/06/15 09:14:31;;;;;;;;;;;;;;;21.96;45.35;101972.00;5139667;27;1878;-58
2021/06/15 09:16:56;;;;;;;;;;;;;;;21.97;45.07;101973.72;5137658;27;1020;-59
2021/06/15 09:19:22;;;;;;;;;;;;;;;21.98;44.73;101976.28;5138121;27;1965;-59
2021/06/15 09:21:48;;;;;;;;;;;;;;;22.01;44.70;101967.03;5155227;27;1335;-59
2021/06/15 09:24:13;;;;;;;;;;;;;;;22.02;45.82;101968.75;5158318;27;850;-59
2021/06/15 09:26:38;;;;;;;;;;;;;;;22.03;44.52;101965.03;5158133;27;1013;-59
2021/06/15 09:29:03;;;;;;;;;;;;;;;22.02;44.91;101979.59;5158238;27;1008;-59
2021/06/15 09:31:28;;;;;;;;;;;;;;;22.01;45.37;101967.88;5158298;27;1019;-59
2021/06/15 09:33:53;;;;;;;;;;;;;;;22.05;44.45;101966.56;5148697;27;1628;-59
2021/06/15 09:36:18;;;;;;;;;;;;;;;22.06;45.18;101965.56;5137176;27;1012;-59
2021/06/15 09:38:43;;;;;;;;;;;;;;;22.06;44.15;101970.13;5136856;27;1898;-59
2021/06/15 09:41:09;;;;;;;;;;;;;;;22.06;44.81;101964.72;5137330;27;1052;-59
2021/06/15 09:43:34;;;;;;;;;;;;;;;22.07;44.55;101953.69;5137168;27;1698;-59
2021/06/15 09:45:59;;;;;;;;;;;;;;;22.06;44.88;101964.72;5136997;27;849;-59
2021/06/15 09:48:24;;;;;;;;;;;;;;;22.08;45.07;101955.41;5136971;27;1005;-59
2021/06/15 09:50:49;;;;;;;;;;;;;;;22.09;44.55;101956.28;5136908;27;766;-59
2021/06/15 09:53:14;;;;;;;;;;;;;;;22.10;44.27;101963.41;5142749;27;1679;-58
2021/06/15 09:55:39;;;;;;;;;;;;;;;22.12;43.72;101962.28;5157731;27;829;-59
2021/06/15 09:58:04;;;;;;;;;;;;;;;22.11;44.96;101956.97;5157398;27;1036;-59
2021/06/15 10:00:29;;;;;;;;;;;;;;;22.12;44.71;101947.84;5157128;27;1889;-59
2021/06/15 10:02:55;;;;;;;;;;;;;;;22.11;44.94;101946.13;5157332;27;873;-59
2021/06/15 10:05:21;;;;;;;;;;;;;;;22.13;44.71;101950.41;5157311;27;798;-59
2021/06/15 10:07:46;;;;;;;;;;;;;;;22.14;44.20;101957.56;5148768;27;1895;-59
2021/06/15 10:10:11;;;;;;;;;;;;;;;22.15;44.23;101959.25;5136321;27;1867;-59
2021/06/15 10:12:36;;;;;;;;;;;;;;;22.15;44.83;101952.97;5139721;27;1785;-59
2021/06/15 10:15:02;;;;;;;;;;;;;;;22.16;44.46;101952.84;5157285;27;1852;-59
2021/06/15 10:17:28;;;;;;;;;;;;;;;22.16;44.52;101960.97;5151101;27;1668;-58
2021/06/15 10:19:53;;;;;;;;;;;;;;;22.16;44.47;101968.28;5147746;27;1957;-59
2021/06/15 10:22:18;;;;;;;;;;;;;;;22.18;44.69;101963.53;5146270;27;1278;-59
2021/06/15 10:24:43;;;;;;;;;;;;;;;22.17;43.66;101953.69;5125880;27;1486;-59
2021/06/15 10:27:08;;;;;;;;;;;;;;;22.18;43.39;101963.53;5146172;27;1417;-59
2021/06/15 10:29:33;;;;;;;;;;;;;;;22.20;43.52;101972.41;5145393;27;1405;-59
2021/06/15 10:31:58;;;;;;;;;;;;;;;22.19;43.36;101970.69;5147161;27;1278;-59
2021/06/15 10:34:23;;;;;;;;;;;;;;;22.18;43.03;101974.41;5143257;27;1968;-59
2021/06/15 10:36:50;;;;;;;;;;;;;;;22.19;43.27;101967.13;5136759;27;1056;-59
2021/06/15 10:39:15;;;;;;;;;;;;;;;22.22;43.09;101970.38;5136551;27;1951;-59
2021/06/15 10:41:40;;;;;;;;;;;;;;;22.25;43.58;101971.94;5136661;27;1076;-59
2021/06/15 10:44:05;;;;;;;;;;;;;;;22.24;43.24;101967.50;5136257;27;842;-59
2021/06/15 10:46:31;;;;;;;;;;;;;;;22.25;43.29;101961.94;5135994;27;798;-59
2021/06/15 10:48:57;;;;;;;;;;;;;;;22.27;43.00;101959.06;5136687;27;840;-59
2021/06/15 10:51:22;;;;;;;;;;;;;;;22.28;42.84;101961.63;5136145;27;948;-59
2021/06/15 10:53:47;;;;;;;;;;;;;;;22.29;43.29;101960.63;5152927;27;1743;-59
2021/06/15 10:56:13;;;;;;;;;;;;;;;22.31;43.19;101960.50;5157400;27;869;-59
2021/06/15 10:58:39;;;;;;;;;;;;;;;22.33;43.14;101953.91;5156906;27;1961;-59
2021/06/15 11:01:04;;;;;;;;;;;;;;;22.33;43.09;101956.63;5157003;27;1401;-59
2021/06/15 11:03:29;;;;;;;;;;;;;;;22.34;43.45;101961.06;5157076;27;938;-59
2021/06/15 11:05:54;;;;;;;;;;;;;;;22.34;42.89;101954.78;5156524;27;845;-59
2021/06/15 11:08:19;;;;;;;;;;;;;;;22.36;43.36;101959.06;5156429;27;920;-59
2021/06/15 11:10:44;;;;;;;;;;;;;;;22.34;43.15;101957.47;5156708;27;905;-59
2021/06/15 11:13:09;;;;;;;;;;;;;;;22.37;43.32;101952.63;5138953;27;1697;-59
2021/06/15 11:15:34;;;;;;;;;;;;;;;22.36;42.86;101950.91;5136298;28;1786;-59
2021/06/15 11:17:59;;;;;;;;;;;;;;;22.38;43.13;101948.91;5135999;28;870;-59
2021/06/15 11:20:25;;;;;;;;;;;;;;;22.37;42.71;101947.19;5136175;27;1972;-59
2021/06/15 11:22:50;;;;;;;;;;;;;;;22.38;43.09;101943.47;5135982;28;850;-59
2021/06/15 11:25:15;;;;;;;;;;;;;;;22.40;43.05;101940.56;5136178;28;1071;-59
2021/06/15 11:27:40;;;;;;;;;;;;;;;22.41;42.90;101937.72;5135999;28;929;-59
2021/06/15 11:30:05;;;;;;;;;;;;;;;22.41;42.84;101940.41;5136120;28;803;-59
2021/06/15 11:32:33;;;;;;;;;;;;;;;22.42;43.13;101936.69;5150162;27;1993;-59
2021/06/15 11:34:59;;;;;;;;;;;;;;;22.43;42.84;101934.84;5151295;27;1423;-59
2021/06/15 11:37:24;;;;;;;;;;;;;;;22.43;42.58;101935.69;5155417;27;1342;-59
2021/06/15 11:39:49;;;;;;;;;;;;;;;22.46;43.25;101927.25;5154111;27;1943;-58
2021/06/15 11:42:18;;;;;;;;;;;;;;;22.46;42.64;101924.53;5157150;27;1761;-59
2021/06/15 11:44:43;;;;;;;;;;;;;;;22.47;42.62;101923.53;5148584;27;1307;-57
2021/06/15 11:47:08;;;;;;;;;;;;;;;22.48;42.76;101927.97;5150237;27;1475;-59
2021/06/15 11:49:33;;;;;;;;;;;;;;;22.48;42.66;101919.81;5148870;27;1264;-59
2021/06/15 11:51:59;;;;;;;;;;;;;;;22.48;42.44;101919.81;5149121;27;1350;-59
2021/06/15 11:54:24;;;;;;;;;;;;;;;22.50;42.98;101925.09;5159860;27;928;-59
2021/06/15 11:56:49;;;;;;;;;;;;;;;22.50;42.07;101934.09;5159842;27;1778;-59
2021/06/15 11:59:14;;;;;;;;;;;;;;;22.51;43.19;101933.09;5159989;27;1893;-59
2021/06/15 12:01:39;;;;;;;;;;;;;;;22.52;42.90;101932.09;5159928;27;1385;-59
2021/06/15 12:04:04;;;;;;;;;;;;;;;22.52;42.74;101942.97;5159833;27;849;-59
2021/06/15 12:06:29;;;;;;;;;;;;;;;22.54;42.63;101941.97;5159781;27;1235;-59
2021/06/15 12:08:54;;;;;;;;;;;;;;;22.55;42.63;101940.97;5159669;27;933;-59
2021/06/15 12:11:19;;;;;;;;;;;;;;;22.55;41.95;101932.81;5150835;27;1612;-59
2021/06/15 12:13:44;;;;;;;;;;;;;;;22.56;42.41;101931.81;5144292;27;1334;-59
2021/06/15 12:16:15;;;;;;;;;;;;;;;22.57;42.10;101926.22;5159494;27;1055;-59
2021/06/15 12:18:40;;;;;;;;;;;;;;;22.59;42.80;101926.03;5159708;27;1909;-59
2021/06/15 12:21:05;;;;;;;;;;;;;;;22.59;42.48;101929.59;5159511;27;857;-59
2021/06/15 12:23:30;;;;;;;;;;;;;;;22.61;42.56;101933.03;5159295;27;961;-58
2021/06/15 12:25:55;;;;;;;;;;;;;;;;;;5159513;27;885;-59
2021/06/15 12:28:20;;;;;;;;;;;;;;;22.65;43.02;101936.31;5159547;27;794;-59
2021/06/15 12:30:45;;;;;;;;;;;;;;;22.64;42.67;101937.31;5153170;27;1867;-59
2021/06/15 12:33:10;;;;;;;;;;;;;;;22.68;42.47;101933.28;5138775;27;1579;-59
2021/06/15 12:35:36;;;;;;;;;;;;;;;22.69;41.98;101926.84;5138270;27;878;-58
2021/06/15 12:38:01;;;;;;;;;;;;;;;22.70;42.89;101928.56;5138462;27;865;-59
2021/06/15 12:40:26;;;;;;;;;;;;;;;22.71;42.75;101928.41;5138520;27;1893;-58